sensor_id;sensor_type;location;lat;lon;timestamp;pressure;altitude;pressure_sealevel;temperature;humidity
23679;BME280;12016;51.668;6.874;2022-09-09T00:05:29;100655.66;;;18.77;100.00
23679;BME280;12016;51.668;6.874;2022-09-09T00:11:46;100659.78;;;18.88;100.00
23679;BME280;12016;51.668;6.874;2022-09-09T00:23:57;100639.53;;;18.81;100.00
23679;BME280;12016;51.668;6.874;2022-09-09T00:30:19;100634.25;;;18.83;100.00
23679;BME280;12016;51.668;6.874;2022-09-09T00:36:26;100641.28;;;18.75;100.00
23679;BME280;12016;51.668;6.874;2022-09-09T00:42:41;100646.34;;;18.48;100.00
23679;BME280;12016;51.668;6.874;2022-09-09T00:55:16;100641.00;;;18.18;100.00
23679;BME280;12016;51.668;6.874;2022-09-09T01:01:20;100660.88;;;17.88;100.00
23679;BME280;12016;51.668;6.874;2022-09-09T01:07:23;100681.78;;;17.64;100.00
23679;BME280;12016;51.668;6.874;2022-09-09T01:13:29;100674.44;;;17.70;100.00
23679;BME280;12016;51.668;6.874;2022-09-09T01:26:18;100670.56;;;17.64;100.00
23679;BME280;12016;51.668;6.874;2022-09-09T01:32:45;100657.41;;;17.60;100.00
23679;BME280;12016;51.668;6.874;2022-09-09T01:38:47;100661.94;;;17.54;100.00
23679;BME280;12016;51.668;6.874;2022-09-09T01:44:50;100645.94;;;17.75;100.00
23679;BME280;12016;51.668;6.874;2022-09-09T01:50:52;100649.81;;;17.81;100.00
23679;BME280;12016;51.668;6.874;2022-09-09T01:57:08;100649.81;;;17.81;100.00
23679;BME280;12016;51.668;6.874;2022-09-09T02:03:25;100650.78;;;18.10;100.00
23679;BME280;12016;51.668;6.874;2022-09-09T02:09:35;100638.91;;;18.22;100.00
23679;BME280;12016;51.668;6.874;2022-09-09T02:15:41;100645.50;;;18.31;100.00
23679;BME280;12016;51.668;6.874;2022-09-09T02:21:46;100642.25;;;18.33;100.00
23679;BME280;12016;51.668;6.874;2022-09-09T02:27:50;100646.50;;;18.41;100.00
23679;BME280;12016;51.668;6.874;2022-09-09T02:33:56;100637.22;;;18.44;100.00
23679;BME280;12016;51.668;6.874;2022-09-09T02:39:59;100647.41;;;18.18;100.00
23679;BME280;12016;51.668;6.874;2022-09-09T02:52:42;100645.25;;;18.06;100.00
23679;BME280;12016;51.668;6.874;2022-09-09T02:58:48;100644.72;;;18.11;100.00
23679;BME280;12016;51.668;6.874;2022-09-09T03:04:51;100653.31;;;18.04;100.00
23679;BME280;12016;51.668;6.874;2022-09-09T03:10:59;100649.34;;;18.02;100.00
23679;BME280;12016;51.668;6.874;2022-09-09T03:17:06;100638.16;;;18.02;100.00
23679;BME280;12016;51.668;6.874;2022-09-09T03:23:14;100643.06;;;17.98;100.00
23679;BME280;12016;51.668;6.874;2022-09-09T03:29:17;100633.28;;;18.06;100.00
23679;BME280;12016;51.668;6.874;2022-09-09T03:35:20;100629.59;;;18.09;100.00
23679;BME280;12016;51.668;6.874;2022-09-09T03:41:22;100625.19;;;18.08;100.00
23679;BME280;12016;51.668;6.874;2022-09-09T03:47:25;100625.31;;;18.04;100.00
23679;BME280;12016;51.668;6.874;2022-09-09T03:53:33;100627.81;;;17.99;100.00
23679;BME280;12016;51.668;6.874;2022-09-09T03:59:37;100626.69;;;17.96;100.00
23679;BME280;12016;51.668;6.874;2022-09-09T04:05:40;100636.72;;;17.94;100.00
23679;BME280;12016;51.668;6.874;2022-09-09T04:11:44;100643.63;;;17.89;100.00
23679;BME280;12016;51.668;6.874;2022-09-09T04:17:48;100640.59;;;18.00;100.00
23679;BME280;12016;51.668;6.874;2022-09-09T04:23:52;100639.75;;;18.03;100.00
23679;BME280;12016;51.668;6.874;2022-09-09T04:29:54;100638.16;;;18.02;100.00
23679;BME280;12016;51.668;6.874;2022-09-09T04:35:59;100635.41;;;17.98;100.00
23679;BME280;12016;51.668;6.874;2022-09-09T04:42:01;100644.97;;;18.01;100.00
23679;BME280;12016;51.668;6.874;2022-09-09T04:48:03;100644.84;;;17.88;100.00
23679;BME280;12016;51.668;6.874;2022-09-09T04:54:05;100654.41;;;17.91;100.00
23679;BME280;12016;51.668;6.874;2022-09-09T05:00:13;100664.53;;;17.85;100.00
23679;BME280;12016;51.668;6.874;2022-09-09T05:06:18;100654.31;;;17.94;100.00
23679;BME280;12016;51.668;6.874;2022-09-09T05:12:23;100665.72;;;18.03;100.00
23679;BME280;12016;51.668;6.874;2022-09-09T05:18:27;100655.50;;;18.13;100.00
23679;BME280;12016;51.668;6.874;2022-09-09T05:24:29;100641.16;;;18.11;100.00
23679;BME280;12016;51.668;6.874;2022-09-09T05:30:35;100639.56;;;18.10;100.00
23679;BME280;12016;51.668;6.874;2022-09-09T05:36:40;100637.75;;;18.19;100.00
23679;BME280;12016;51.668;6.874;2022-09-09T05:42:43;100633.81;;;18.17;100.00
23679;BME280;12016;51.668;6.874;2022-09-09T05:48:47;100641.13;;;18.30;100.00
23679;BME280;12016;51.668;6.874;2022-09-09T05:54:50;100643.69;;;18.41;100.00
23679;BME280;12016;51.668;6.874;2022-09-09T06:00:59;100643.25;;;18.42;100.00
23679;BME280;12016;51.668;6.874;2022-09-09T06:07:01;100645.28;;;18.42;100.00
23679;BME280;12016;51.668;6.874;2022-09-09T06:13:04;100648.59;;;18.37;100.00
23679;BME280;12016;51.668;6.874;2022-09-09T06:19:06;100638.00;;;18.44;100.00
23679;BME280;12016;51.668;6.874;2022-09-09T06:25:09;100640.75;;;18.64;100.00
23679;BME280;12016;51.668;6.874;2022-09-09T06:31:14;100637.06;;;18.83;100.00
23679;BME280;12016;51.668;6.874;2022-09-09T06:37:19;100643.19;;;18.78;100.00
23679;BME280;12016;51.668;6.874;2022-09-09T06:43:25;100645.75;;;18.88;100.00
23679;BME280;12016;51.668;6.874;2022-09-09T06:49:29;100640.66;;;19.00;100.00
23679;BME280;12016;51.668;6.874;2022-09-09T06:55:31;100647.31;;;19.06;100.00
23679;BME280;12016;51.668;6.874;2022-09-09T07:01:43;100639.56;;;19.26;100.00
23679;BME280;12016;51.668;6.874;2022-09-09T07:07:48;100638.09;;;19.21;100.00
23679;BME280;12016;51.668;6.874;2022-09-09T07:13:54;100640.19;;;19.17;100.00
23679;BME280;12016;51.668;6.874;2022-09-09T07:19:55;100639.63;;;19.38;100.00
23679;BME280;12016;51.668;6.874;2022-09-09T07:25:59;100635.38;;;19.62;100.00
23679;BME280;12016;51.668;6.874;2022-09-09T07:32:02;100638.41;;;19.68;100.00
23679;BME280;12016;51.668;6.874;2022-09-09T07:38:11;100636.69;;;19.86;100.00
23679;BME280;12016;51.668;6.874;2022-09-09T07:44:22;100630.50;;;19.91;100.00
23679;BME280;12016;51.668;6.874;2022-09-09T07:50:30;100628.84;;;20.06;100.00
23679;BME280;12016;51.668;6.874;2022-09-09T07:56:34;100611.56;;;20.20;100.00
23679;BME280;12016;51.668;6.874;2022-09-09T08:02:35;100608.13;;;20.00;100.00
23679;BME280;12016;51.668;6.874;2022-09-09T08:08:38;100604.38;;;20.45;100.00
23679;BME280;12016;51.668;6.874;2022-09-09T08:14:41;100602.41;;;20.79;100.00
23679;BME280;12016;51.668;6.874;2022-09-09T08:20:43;100603.88;;;20.84;100.00
23679;BME280;12016;51.668;6.874;2022-09-09T08:26:47;100588.91;;;20.74;100.00
23679;BME280;12016;51.668;6.874;2022-09-09T08:32:54;100594.28;;;20.94;100.00
23679;BME280;12016;51.668;6.874;2022-09-09T08:38:57;100596.31;;;21.06;100.00
23679;BME280;12016;51.668;6.874;2022-09-09T08:45:09;100615.34;;;21.02;100.00
23679;BME280;12016;51.668;6.874;2022-09-09T08:51:14;100600.72;;;20.94;100.00
23679;BME280;12016;51.668;6.874;2022-09-09T08:57:21;100617.13;;;20.96;100.00
23679;BME280;12016;51.668;6.874;2022-09-09T09:10:17;100589.06;;;21.17;100.00
23679;BME280;12016;51.668;6.874;2022-09-09T09:16:53;100576.56;;;21.40;100.00
23679;BME280;12016;51.668;6.874;2022-09-09T09:23:00;100591.19;;;21.69;100.00
23679;BME280;12016;51.668;6.874;2022-09-09T09:29:12;100591.06;;;21.73;100.00
23679;BME280;12016;51.668;6.874;2022-09-09T09:35:15;100585.19;;;21.80;100.00
23679;BME280;12016;51.668;6.874;2022-09-09T09:41:41;100589.53;;;21.59;100.00
23679;BME280;12016;51.668;6.874;2022-09-09T09:47:45;100603.63;;;21.37;100.00
23679;BME280;12016;51.668;6.874;2022-09-09T09:53:49;100593.88;;;21.51;100.00
23679;BME280;12016;51.668;6.874;2022-09-09T10:00:02;100618.94;;;21.36;100.00
23679;BME280;12016;51.668;6.874;2022-09-09T10:06:15;100602.19;;;21.33;100.00
23679;BME280;12016;51.668;6.874;2022-09-09T10:31:19;100580.75;;;22.00;100.00
23679;BME280;12016;51.668;6.874;2022-09-09T10:57:14;100569.41;;;22.52;100.00
23679;BME280;12016;51.668;6.874;2022-09-09T11:03:24;100577.34;;;22.14;100.00
23679;BME280;12016;51.668;6.874;2022-09-09T11:09:31;100590.13;;;21.54;100.00
23679;BME280;12016;51.668;6.874;2022-09-09T11:15:49;100591.44;;;21.19;100.00
23679;BME280;12016;51.668;6.874;2022-09-09T11:21:53;100590.00;;;21.36;100.00
23679;BME280;12016;51.668;6.874;2022-09-09T11:34:26;100573.75;;;21.62;100.00
23679;BME280;12016;51.668;6.874;2022-09-09T11:40:32;100563.25;;;21.62;100.00
23679;BME280;12016;51.668;6.874;2022-09-09T11:46:38;100569.31;;;21.51;100.00
23679;BME280;12016;51.668;6.874;2022-09-09T11:52:43;100566.66;;;21.57;100.00
23679;BME280;12016;51.668;6.874;2022-09-09T11:58:56;100564.41;;;21.86;100.00
23679;BME280;12016;51.668;6.874;2022-09-09T12:11:07;100549.72;;;22.00;100.00
23679;BME280;12016;51.668;6.874;2022-09-09T12:17:19;100538.59;;;21.75;100.00
23679;BME280;12016;51.668;6.874;2022-09-09T12:38:36;100559.44;;;22.39;100.00
23679;BME280;12016;51.668;6.874;2022-09-09T12:44:38;100558.78;;;22.93;100.00
23679;BME280;12016;51.668;6.874;2022-09-09T12:50:48;100544.84;;;22.40;100.00
23679;BME280;12016;51.668;6.874;2022-09-09T12:56:53;100554.63;;;22.09;100.00
23679;BME280;12016;51.668;6.874;2022-09-09T13:02:57;100645.28;;;21.21;100.00
23679;BME280;12016;51.668;6.874;2022-09-09T13:09:01;100649.06;;;21.27;100.00
23679;BME280;12016;51.668;6.874;2022-09-09T13:15:04;100650.00;;;21.24;100.00
23679;BME280;12016;51.668;6.874;2022-09-09T13:21:12;100637.28;;;22.27;100.00
23679;BME280;12016;51.668;6.874;2022-09-09T13:27:37;100607.53;;;22.66;100.00
23679;BME280;12016;51.668;6.874;2022-09-09T13:33:44;100579.22;;;22.48;100.00
23679;BME280;12016;51.668;6.874;2022-09-09T13:39:51;100565.53;;;22.86;100.00
23679;BME280;12016;51.668;6.874;2022-09-09T13:46:00;100556.28;;;22.76;100.00
23679;BME280;12016;51.668;6.874;2022-09-09T13:52:14;100558.13;;;22.61;100.00
23679;BME280;12016;51.668;6.874;2022-09-09T13:58:18;100557.59;;;22.45;100.00
23679;BME280;12016;51.668;6.874;2022-09-09T14:04:20;100558.44;;;22.24;100.00
23679;BME280;12016;51.668;6.874;2022-09-09T14:10:23;100551.25;;;22.62;100.00
23679;BME280;12016;51.668;6.874;2022-09-09T14:16:25;100549.69;;;22.98;100.00
23679;BME280;12016;51.668;6.874;2022-09-09T14:22:29;100535.44;;;23.37;100.00
23679;BME280;12016;51.668;6.874;2022-09-09T14:28:31;100555.31;;;22.79;100.00
23679;BME280;12016;51.668;6.874;2022-09-09T14:34:55;100538.59;;;22.36;100.00
23679;BME280;12016;51.668;6.874;2022-09-09T14:40:57;100529.47;;;22.23;100.00
23679;BME280;12016;51.668;6.874;2022-09-09T14:47:05;100535.56;;;21.91;100.00
23679;BME280;12016;51.668;6.874;2022-09-09T14:53:07;100574.41;;;21.66;100.00
23679;BME280;12016;51.668;6.874;2022-09-09T14:59:10;100675.81;;;19.04;100.00
23679;BME280;12016;51.668;6.874;2022-09-09T15:05:12;100702.53;;;18.60;100.00
23679;BME280;12016;51.668;6.874;2022-09-09T15:11:14;100719.69;;;18.27;100.00
23679;BME280;12016;51.668;6.874;2022-09-09T15:17:17;100713.91;;;18.14;100.00
23679;BME280;12016;51.668;6.874;2022-09-09T15:23:19;100705.31;;;18.05;100.00
23679;BME280;12016;51.668;6.874;2022-09-09T15:29:20;100701.00;;;18.01;100.00
23679;BME280;12016;51.668;6.874;2022-09-09T15:35:22;100696.19;;;18.01;100.00
23679;BME280;12016;51.668;6.874;2022-09-09T15:41:25;100697.28;;;18.07;100.00
23679;BME280;12016;51.668;6.874;2022-09-09T15:47:27;100696.47;;;18.07;100.00
23679;BME280;12016;51.668;6.874;2022-09-09T15:53:32;100706.97;;;18.22;100.00
23679;BME280;12016;51.668;6.874;2022-09-09T15:59:34;100703.84;;;18.36;100.00
23679;BME280;12016;51.668;6.874;2022-09-09T16:05:36;100719.19;;;18.67;100.00
23679;BME280;12016;51.668;6.874;2022-09-09T16:11:38;100711.97;;;19.02;100.00
23679;BME280;12016;51.668;6.874;2022-09-09T16:17:40;100708.44;;;19.14;100.00
23679;BME280;12016;51.668;6.874;2022-09-09T16:23:43;100696.97;;;19.09;100.00
23679;BME280;12016;51.668;6.874;2022-09-09T16:29:45;100691.06;;;19.35;100.00
23679;BME280;12016;51.668;6.874;2022-09-09T16:35:47;100694.13;;;19.41;100.00
23679;BME280;12016;51.668;6.874;2022-09-09T16:41:52;100692.97;;;19.22;100.00
23679;BME280;12016;51.668;6.874;2022-09-09T16:48:01;100696.69;;;19.19;100.00
23679;BME280;12016;51.668;6.874;2022-09-09T16:54:05;100703.09;;;19.36;100.00
23679;BME280;12016;51.668;6.874;2022-09-09T17:00:10;100699.03;;;19.21;100.00
23679;BME280;12016;51.668;6.874;2022-09-09T17:06:14;100693.88;;;19.19;100.00
23679;BME280;12016;51.668;6.874;2022-09-09T17:12:17;100690.19;;;19.06;100.00
23679;BME280;12016;51.668;6.874;2022-09-09T17:18:19;100697.03;;;19.21;100.00
23679;BME280;12016;51.668;6.874;2022-09-09T17:24:29;100694.66;;;19.20;100.00
23679;BME280;12016;51.668;6.874;2022-09-09T17:30:34;100707.03;;;19.06;100.00
23679;BME280;12016;51.668;6.874;2022-09-09T17:36:36;100701.06;;;19.04;100.00
23679;BME280;12016;51.668;6.874;2022-09-09T17:42:39;100707.19;;;18.99;100.00
23679;BME280;12016;51.668;6.874;2022-09-09T17:48:45;100715.97;;;18.85;100.00
23679;BME280;12016;51.668;6.874;2022-09-09T17:54:47;100728.75;;;18.86;100.00
23679;BME280;12016;51.668;6.874;2022-09-09T18:00:49;100722.97;;;18.77;100.00
23679;BME280;12016;51.668;6.874;2022-09-09T18:06:53;100726.16;;;18.79;100.00
23679;BME280;12016;51.668;6.874;2022-09-09T18:12:57;100725.41;;;18.75;100.00
23679;BME280;12016;51.668;6.874;2022-09-09T18:18:58;100730.06;;;18.81;100.00
23679;BME280;12016;51.668;6.874;2022-09-09T18:25:01;100728.06;;;18.98;100.00
23679;BME280;12016;51.668;6.874;2022-09-09T18:31:07;100730.97;;;19.11;100.00
23679;BME280;12016;51.668;6.874;2022-09-09T18:37:09;100747.41;;;19.28;100.00
23679;BME280;12016;51.668;6.874;2022-09-09T18:43:11;100772.94;;;19.34;100.00
23679;BME280;12016;51.668;6.874;2022-09-09T18:49:13;100768.13;;;19.34;100.00
23679;BME280;12016;51.668;6.874;2022-09-09T18:55:16;100785.09;;;19.27;100.00
23679;BME280;12016;51.668;6.874;2022-09-09T19:01:18;100788.16;;;19.01;100.00
23679;BME280;12016;51.668;6.874;2022-09-09T19:07:20;100804.34;;;18.93;100.00
23679;BME280;12016;51.668;6.874;2022-09-09T19:13:21;100815.78;;;19.02;100.00
23679;BME280;12016;51.668;6.874;2022-09-09T19:19:27;100824.69;;;18.81;100.00
23679;BME280;12016;51.668;6.874;2022-09-09T19:25:29;100850.47;;;18.56;100.00
23679;BME280;12016;51.668;6.874;2022-09-09T19:31:33;100832.00;;;18.36;100.00
23679;BME280;12016;51.668;6.874;2022-09-09T19:37:37;100817.00;;;18.46;100.00
23679;BME280;12016;51.668;6.874;2022-09-09T19:43:39;100814.72;;;18.41;100.00
23679;BME280;12016;51.668;6.874;2022-09-09T19:49:42;100820.09;;;18.32;100.00
23679;BME280;12016;51.668;6.874;2022-09-09T19:55:49;100823.53;;;18.20;100.00
23679;BME280;12016;51.668;6.874;2022-09-09T20:01:52;100830.56;;;18.28;100.00
23679;BME280;12016;51.668;6.874;2022-09-09T20:07:53;100832.94;;;18.29;100.00
23679;BME280;12016;51.668;6.874;2022-09-09T20:13:55;100837.91;;;18.22;100.00
23679;BME280;12016;51.668;6.874;2022-09-09T20:19:57;100851.19;;;18.37;100.00
23679;BME280;12016;51.668;6.874;2022-09-09T20:26:00;100844.56;;;18.51;100.00
23679;BME280;12016;51.668;6.874;2022-09-09T20:32:09;100857.19;;;18.39;100.00
23679;BME280;12016;51.668;6.874;2022-09-09T20:38:12;100860.03;;;18.36;100.00
23679;BME280;12016;51.668;6.874;2022-09-09T20:44:16;100855.00;;;18.27;100.00
23679;BME280;12016;51.668;6.874;2022-09-09T20:50:18;100856.97;;;18.30;100.00
23679;BME280;12016;51.668;6.874;2022-09-09T20:56:19;100858.59;;;18.28;100.00
23679;BME280;12016;51.668;6.874;2022-09-09T21:02:21;100862.63;;;18.27;100.00
23679;BME280;12016;51.668;6.874;2022-09-09T21:08:27;100865.81;;;18.29;100.00
23679;BME280;12016;51.668;6.874;2022-09-09T21:14:29;100860.31;;;18.22;100.00
23679;BME280;12016;51.668;6.874;2022-09-09T21:20:31;100862.75;;;18.20;100.00
23679;BME280;12016;51.668;6.874;2022-09-09T21:26:33;100858.59;;;18.28;100.00
23679;BME280;12016;51.668;6.874;2022-09-09T21:32:36;100857.16;;;18.20;100.00
23679;BME280;12016;51.668;6.874;2022-09-09T21:38:39;100853.06;;;18.24;100.00
23679;BME280;12016;51.668;6.874;2022-09-09T21:44:41;100863.69;;;18.13;100.00
23679;BME280;12016;51.668;6.874;2022-09-09T21:50:45;100876.56;;;18.11;100.00
23679;BME280;12016;51.668;6.874;2022-09-09T21:56:48;100873.94;;;18.00;100.00
23679;BME280;12016;51.668;6.874;2022-09-09T22:02:50;100868.38;;;17.97;100.00
23679;BME280;12016;51.668;6.874;2022-09-09T22:08:52;100874.34;;;17.99;100.00
23679;BME280;12016;51.668;6.874;2022-09-09T22:14:56;100868.00;;;17.95;100.00
23679;BME280;12016;51.668;6.874;2022-09-09T22:21:04;100864.13;;;18.12;100.00
23679;BME280;12016;51.668;6.874;2022-09-09T22:27:06;100864.59;;;18.07;100.00
23679;BME280;12016;51.668;6.874;2022-09-09T22:33:08;100852.81;;;17.96;100.00
23679;BME280;12016;51.668;6.874;2022-09-09T22:39:09;100853.50;;;18.00;100.00
23679;BME280;12016;51.668;6.874;2022-09-09T22:45:11;100858.41;;;17.96;100.00
23679;BME280;12016;51.668;6.874;2022-09-09T22:51:13;100859.31;;;17.89;100.00
23679;BME280;12016;51.668;6.874;2022-09-09T22:57:15;100863.53;;;18.01;100.00
23679;BME280;12016;51.668;6.874;2022-09-09T23:03:17;100872.50;;;18.12;100.00
23679;BME280;12016;51.668;6.874;2022-09-09T23:09:24;100867.66;;;18.16;100.00
23679;BME280;12016;51.668;6.874;2022-09-09T23:15:27;100868.84;;;18.15;100.00
23679;BME280;12016;51.668;6.874;2022-09-09T23:21:32;100868.44;;;18.16;100.00
23679;BME280;12016;51.668;6.874;2022-09-09T23:27:34;100876.78;;;18.20;100.00
23679;BME280;12016;51.668;6.874;2022-09-09T23:33:41;100880.44;;;18.17;100.00
23679;BME280;12016;51.668;6.874;2022-09-09T23:39:46;100886.75;;;18.21;100.00
23679;BME280;12016;51.668;6.874;2022-09-09T23:45:48;100884.31;;;18.23;100.00
23679;BME280;12016;51.668;6.874;2022-09-09T23:51:50;100886.75;;;18.21;100.00
23679;BME280;12016;51.668;6.874;2022-09-09T23:57:53;100879.91;;;18.02;100.00
